Time;durP1;ratioP1;P1;durP2;ratioP2;P2;SDS_P1;SDS_P2;PMS_P1;PMS_P2;Temp;Humidity;BMP_temperature;BMP_pressure;BME280_temperature;BME280_humidity;BME280_pressure;Samples;Min_cycle;Max_cycle;Signal;HPM_P1;HPM_P2
2023/05/31 00:00:47;;;;;;;0.10;0.10;;;;;;;;;;6200361;23;20020;-76
2023/05/31 00:03:13;;;;;;;0.10;0.10;;;;;;;;;;6199269;23;20531;-76
2023/05/31 00:05:39;;;;;;;0.10;0.10;;;;;;;;;;6198426;23;20416;-76
2023/05/31 00:08:06;;;;;;;0.10;0.10;;;;;;;;;;6199327;23;20025;-76
2023/05/31 00:10:32;;;;;;;0.10;0.10;;;;;;;;;;6200432;23;20048;-76
2023/05/31 00:12:58;;;;;;;0.10;0.10;;;;;;;;;;6201044;23;20016;-75
2023/05/31 00:15:24;;;;;;;0.10;0.10;;;;;;;;;;6200580;23;20104;-76
2023/05/31 00:17:50;;;;;;;0.10;0.10;;;;;;;;;;6199922;23;20100;-76
2023/05/31 00:20:16;;;;;;;0.10;0.10;;;;;;;;;;6198237;23;20084;-76
2023/05/31 00:22:42;;;;;;;0.10;0.10;;;;;;;;;;6197719;23;20847;-76
2023/05/31 00:25:08;;;;;;;0.10;0.10;;;;;;;;;;6197374;23;20597;-76
2023/05/31 00:27:34;;;;;;;0.10;0.10;;;;;;;;;;6171823;23;20032;-75
2023/05/31 00:30:00;;;;;;;0.10;0.10;;;;;;;;;;6197042;23;20020;-75
2023/05/31 00:32:26;;;;;;;0.10;0.10;;;;;;;;;;6195143;23;20048;-76
2023/05/31 00:34:52;;;;;;;0.10;0.10;;;;;;;;;;6198779;23;20020;-75
2023/05/31 00:37:18;;;;;;;0.10;0.10;;;;;;;;;;6202138;23;20016;-76
2023/05/31 00:39:44;;;;;;;0.10;0.10;;;;;;;;;;6200561;23;20016;-76
2023/05/31 00:42:10;;;;;;;0.80;0.75;;;;;;;;;;6201014;23;20020;-75
2023/05/31 00:44:36;;;;;;;0.10;0.10;;;;;;;;;;6200643;23;20572;-76
2023/05/31 00:47:03;;;;;;;0.10;0.10;;;;;;;;;;6201790;23;20645;-76
2023/05/31 00:49:30;;;;;;;0.10;0.10;;;;;;;;;;6201241;23;20071;-76
2023/05/31 00:51:56;;;;;;;0.10;0.10;;;;;;;;;;6200978;23;20333;-76
2023/05/31 00:54:23;;;;;;;0.10;0.10;;;;;;;;;;6201125;23;20459;-76
2023/05/31 00:56:49;;;;;;;0.10;0.10;;;;;;;;;;6228255;23;20027;-75
2023/05/31 00:59:16;;;;;;;0.10;0.10;;;;;;;;;;6227215;23;20024;-76
2023/05/31 01:01:42;;;;;;;0.10;0.10;;;;;;;;;;6228267;23;20024;-76
2023/05/31 01:04:08;;;;;;;0.10;0.10;;;;;;;;;;6227833;23;20024;-76
2023/05/31 01:06:35;;;;;;;0.10;0.10;;;;;;;;;;6200549;23;20028;-76
2023/05/31 01:09:04;;;;;;;0.10;0.10;;;;;;;;;;6201351;23;20119;-76
2023/05/31 01:11:33;;;;;;;0.10;0.10;;;;;;;;;;6200976;23;20526;-76
2023/05/31 01:14:04;;;;;;;0.10;0.10;;;;;;;;;;6200301;23;20099;-76
2023/05/31 01:16:38;;;;;;;0.10;0.10;;;;;;;;;;6201873;23;20100;-76
2023/05/31 01:19:07;;;;;;;0.10;0.10;;;;;;;;;;6201940;23;20300;-76
2023/05/31 01:21:57;;;;;;;0.10;0.10;;;;;;;;;;6201440;23;20117;-76
2023/05/31 01:24:31;;;;;;;0.10;0.10;;;;;;;;;;6147275;23;20016;-76
2023/05/31 01:27:00;;;;;;;0.10;0.10;;;;;;;;;;6201494;23;20510;-76
2023/05/31 01:29:27;;;;;;;0.10;0.10;;;;;;;;;;6228444;23;20024;-76
2023/05/31 01:31:55;;;;;;;0.10;0.10;;;;;;;;;;6229110;23;20447;-76
2023/05/31 01:34:22;;;;;;;0.10;0.10;;;;;;;;;;6200282;23;20031;-76
2023/05/31 01:36:48;;;;;;;0.10;0.10;;;;;;;;;;6227550;23;20081;-76
2023/05/31 01:39:14;;;;;;;0.10;0.10;;;;;;;;;;6228563;23;20110;-76
2023/05/31 01:41:41;;;;;;;3.25;0.57;;;;;;;;;;6229019;23;20123;-76
2023/05/31 01:44:08;;;;;;;0.10;0.10;;;;;;;;;;6203339;23;20441;-76
2023/05/31 01:46:34;;;;;;;0.10;0.10;;;;;;;;;;6230689;23;20012;-75
2023/05/31 01:49:01;;;;;;;0.10;0.10;;;;;;;;;;6203308;23;20024;-76
2023/05/31 01:51:28;;;;;;;0.10;0.10;;;;;;;;;;6203452;23;20050;-76
2023/05/31 01:53:54;;;;;;;0.10;0.10;;;;;;;;;;6203068;23;20070;-76
2023/05/31 01:56:21;;;;;;;0.15;0.15;;;;;;;;;;6230058;23;20471;-76
2023/05/31 01:58:50;;;;;;;2.38;0.80;;;;;;;;;;6203342;23;20016;-76
2023/05/31 02:01:17;;;;;;;0.10;0.10;;;;;;;;;;6230596;23;20092;-75
2023/05/31 02:03:44;;;;;;;0.10;0.10;;;;;;;;;;6230258;23;20024;-75
2023/05/31 02:06:13;;;;;;;0.10;0.10;;;;;;;;;;6203238;23;20019;-76
2023/05/31 02:08:40;;;;;;;0.10;0.10;;;;;;;;;;6229567;23;20032;-75
2023/05/31 02:11:06;;;;;;;0.10;0.10;;;;;;;;;;6228717;23;20086;-76
2023/05/31 02:13:32;;;;;;;0.10;0.10;;;;;;;;;;6230109;23;20043;-75
2023/05/31 02:15:58;;;;;;;0.10;0.10;;;;;;;;;;6205446;23;20020;-75
2023/05/31 02:18:26;;;;;;;0.10;0.10;;;;;;;;;;6205072;23;20324;-76
2023/05/31 02:20:53;;;;;;;0.10;0.10;;;;;;;;;;6231717;23;20035;-76
2023/05/31 02:23:22;;;;;;;0.10;0.10;;;;;;;;;;6204710;23;20511;-76
2023/05/31 02:25:49;;;;;;;0.10;0.10;;;;;;;;;;6231234;23;20489;-76
2023/05/31 02:28:15;;;;;;;0.10;0.10;;;;;;;;;;6204539;23;20023;-76
2023/05/31 02:30:42;;;;;;;0.10;0.10;;;;;;;;;;6204378;23;20028;-76
2023/05/31 02:33:08;;;;;;;0.60;0.60;;;;;;;;;;6204805;23;20042;-76
2023/05/31 02:35:34;;;;;;;0.10;0.10;;;;;;;;;;6204587;23;20644;-76
2023/05/31 02:38:01;;;;;;;0.10;0.10;;;;;;;;;;6205018;23;20024;-76
2023/05/31 02:40:27;;;;;;;0.10;0.10;;;;;;;;;;6204121;23;20020;-77
2023/05/31 02:42:53;;;;;;;0.10;0.10;;;;;;;;;;6230537;23;20762;-76
2023/05/31 02:45:20;;;;;;;0.43;0.43;;;;;;;;;;6179598;23;20437;-76
2023/05/31 02:47:46;;;;;;;0.10;0.10;;;;;;;;;;6205131;23;20052;-76
2023/05/31 02:50:12;;;;;;;0.10;0.10;;;;;;;;;;6205409;23;20023;-76
2023/05/31 02:52:38;;;;;;;0.10;0.10;;;;;;;;;;6232143;23;20422;-76
2023/05/31 02:55:05;;;;;;;0.10;0.10;;;;;;;;;;6203806;23;20020;-76
2023/05/31 02:57:32;;;;;;;0.10;0.10;;;;;;;;;;6204794;23;20024;-76
2023/05/31 02:59:59;;;;;;;0.10;0.10;;;;;;;;;;6231295;23;20093;-76
2023/05/31 03:02:25;;;;;;;0.30;0.30;;;;;;;;;;6204073;23;20020;-76
2023/05/31 03:04:52;;;;;;;0.10;0.10;;;;;;;;;;6202839;23;20099;-76
2023/05/31 03:07:18;;;;;;;0.10;0.10;;;;;;;;;;6202391;23;20083;-76
2023/05/31 03:09:44;;;;;;;0.10;0.10;;;;;;;;;;6178225;23;20452;-76
2023/05/31 03:12:10;;;;;;;0.10;0.10;;;;;;;;;;6231452;23;20051;-76
2023/05/31 03:14:36;;;;;;;0.10;0.10;;;;;;;;;;6204110;23;20020;-76
2023/05/31 03:17:03;;;;;;;0.10;0.10;;;;;;;;;;6231011;23;20024;-76
2023/05/31 03:19:29;;;;;;;0.10;0.10;;;;;;;;;;6231617;23;20020;-76
2023/05/31 03:21:55;;;;;;;0.10;0.10;;;;;;;;;;6204127;23;20501;-76
2023/05/31 03:24:21;;;;;;;0.10;0.10;;;;;;;;;;6204244;23;20058;-76
2023/05/31 03:26:48;;;;;;;0.20;0.20;;;;;;;;;;6203595;23;20027;-76
2023/05/31 03:29:14;;;;;;;0.10;0.10;;;;;;;;;;6230470;23;20095;-76
2023/05/31 03:31:40;;;;;;;0.10;0.10;;;;;;;;;;6204019;23;20177;-76
2023/05/31 03:34:06;;;;;;;0.10;0.10;;;;;;;;;;6204040;23;20082;-76
2023/05/31 03:36:32;;;;;;;0.10;0.10;;;;;;;;;;6231337;23;20016;-76
2023/05/31 03:38:58;;;;;;;0.10;0.10;;;;;;;;;;6231515;23;20147;-76
2023/05/31 03:41:25;;;;;;;0.10;0.10;;;;;;;;;;6231471;23;20043;-76
2023/05/31 03:43:52;;;;;;;0.10;0.10;;;;;;;;;;6204699;23;20058;-76
2023/05/31 03:46:18;;;;;;;0.10;0.10;;;;;;;;;;6230462;23;20020;-76
2023/05/31 03:48:44;;;;;;;0.10;0.10;;;;;;;;;;6204864;23;20023;-76
2023/05/31 03:51:10;;;;;;;0.10;0.10;;;;;;;;;;6204637;23;20093;-76
2023/05/31 03:53:36;;;;;;;0.10;0.10;;;;;;;;;;6204406;23;20095;-76
2023/05/31 03:56:02;;;;;;;0.10;0.10;;;;;;;;;;6203498;23;20016;-76
2023/05/31 03:58:28;;;;;;;0.10;0.10;;;;;;;;;;6203444;23;20490;-76
2023/05/31 04:00:54;;;;;;;0.10;0.10;;;;;;;;;;6204121;23;20020;-76
2023/05/31 04:03:21;;;;;;;0.10;0.10;;;;;;;;;;6204479;23;20027;-76
2023/05/31 04:05:47;;;;;;;0.10;0.10;;;;;;;;;;6204375;23;20263;-75
2023/05/31 04:08:13;;;;;;;0.10;0.10;;;;;;;;;;6204001;23;20091;-76
2023/05/31 04:10:40;;;;;;;0.10;0.10;;;;;;;;;;6201574;23;20063;-76
2023/05/31 04:13:06;;;;;;;0.10;0.10;;;;;;;;;;6201708;23;20051;-76
2023/05/31 04:15:32;;;;;;;0.10;0.10;;;;;;;;;;6203235;23;20450;-76
2023/05/31 04:17:58;;;;;;;0.10;0.10;;;;;;;;;;6203935;23;20024;-76
2023/05/31 04:20:24;;;;;;;0.17;0.17;;;;;;;;;;6204168;23;20079;-76
2023/05/31 04:22:50;;;;;;;0.10;0.10;;;;;;;;;;6203988;23;20046;-76
2023/05/31 04:25:17;;;;;;;0.10;0.10;;;;;;;;;;6178602;23;20044;-76
2023/05/31 04:27:43;;;;;;;0.10;0.10;;;;;;;;;;6203344;23;20016;-76
2023/05/31 04:30:09;;;;;;;0.10;0.10;;;;;;;;;;6179191;23;20020;-76
2023/05/31 04:32:35;;;;;;;0.10;0.10;;;;;;;;;;6202779;23;20046;-76
2023/05/31 04:35:03;;;;;;;0.10;0.10;;;;;;;;;;6201120;23;20503;-75
2023/05/31 04:37:33;;;;;;;0.10;0.10;;;;;;;;;;6199647;23;20352;-75
2023/05/31 04:39:59;;;;;;;0.10;0.10;;;;;;;;;;6202533;23;20090;-76
2023/05/31 04:42:26;;;;;;;0.20;0.20;;;;;;;;;;6200672;23;20020;-77
2023/05/31 04:44:58;;;;;;;0.10;0.10;;;;;;;;;;6228693;23;20055;-77
2023/05/31 04:47:28;;;;;;;0.10;0.10;;;;;;;;;;6228429;23;20028;-77
2023/05/31 04:49:57;;;;;;;0.10;0.10;;;;;;;;;;6202522;23;20027;-75
2023/05/31 04:52:29;;;;;;;0.10;0.10;;;;;;;;;;6202863;23;20020;-75
2023/05/31 04:54:56;;;;;;;0.10;0.10;;;;;;;;;;6203154;23;20573;-75
2023/05/31 04:57:22;;;;;;;0.10;0.10;;;;;;;;;;6203922;23;20531;-75
2023/05/31 04:59:49;;;;;;;0.10;0.10;;;;;;;;;;6202449;23;20216;-75
2023/05/31 05:02:15;;;;;;;0.10;0.10;;;;;;;;;;6203342;23;20074;-75
2023/05/31 05:04:41;;;;;;;0.10;0.10;;;;;;;;;;6202977;23;20028;-74
2023/05/31 05:07:07;;;;;;;0.10;0.10;;;;;;;;;;6203412;23;20169;-74
2023/05/31 05:09:33;;;;;;;0.10;0.10;;;;;;;;;;6202389;23;20019;-76
2023/05/31 05:12:00;;;;;;;0.10;0.10;;;;;;;;;;6201838;23;20024;-75
2023/05/31 05:14:26;;;;;;;2.70;0.95;;;;;;;;;;6201166;23;20024;-75
2023/05/31 05:16:52;;;;;;;0.10;0.10;;;;;;;;;;6200737;23;20055;-75
2023/05/31 05:19:18;;;;;;;0.25;0.25;;;;;;;;;;6199734;23;20490;-75
2023/05/31 05:21:44;;;;;;;20.63;1.23;;;;;;;;;;6201528;23;20031;-76
2023/05/31 05:24:10;;;;;;;0.10;0.10;;;;;;;;;;6228860;23;20019;-77
2023/05/31 05:26:36;;;;;;;0.10;0.10;;;;;;;;;;6229565;23;20515;-77
2023/05/31 05:29:02;;;;;;;0.10;0.10;;;;;;;;;;6202850;23;20071;-79
2023/05/31 05:31:28;;;;;;;0.10;0.10;;;;;;;;;;6201158;23;20440;-75
2023/05/31 05:33:54;;;;;;;0.08;0.08;;;;;;;;;;6200212;23;20162;-75
2023/05/31 05:36:21;;;;;;;396.00;98.80;;;;;;;;;;6201049;23;20028;-81
2023/05/31 05:38:47;;;;;;;360.30;82.32;;;;;;;;;;6198329;23;20374;-77
2023/05/31 05:41:13;;;;;;;279.50;73.88;;;;;;;;;;6198122;23;20373;-75
2023/05/31 05:43:42;;;;;;;261.90;64.80;;;;;;;;;;6227647;23;20368;-75
2023/05/31 05:46:08;;;;;;;259.63;64.27;;;;;;;;;;6228170;23;20393;-75
2023/05/31 05:48:34;;;;;;;260.63;65.07;;;;;;;;;;6201145;23;20380;-75
2023/05/31 05:51:00;;;;;;;259.63;65.22;;;;;;;;;;6201615;23;20765;-75
2023/05/31 05:53:26;;;;;;;254.88;62.83;;;;;;;;;;6228092;23;20361;-75
2023/05/31 05:55:53;;;;;;;256.30;64.07;;;;;;;;;;6201015;23;20369;-75
2023/05/31 05:58:19;;;;;;;259.05;64.47;;;;;;;;;;6201264;23;20362;-75
2023/05/31 06:00:48;;;;;;;252.13;62.22;;;;;;;;;;6228229;23;20362;-75
2023/05/31 06:03:15;;;;;;;255.10;62.75;;;;;;;;;;6227813;23;20390;-75
2023/05/31 06:05:44;;;;;;;256.80;63.55;;;;;;;;;;6227978;23;20362;-75
2023/05/31 06:08:11;;;;;;;252.73;61.78;;;;;;;;;;6201261;23;20381;-75
2023/05/31 06:10:37;;;;;;;252.67;61.60;;;;;;;;;;6201437;23;20374;-75
2023/05/31 06:13:04;;;;;;;257.30;62.42;;;;;;;;;;6202475;23;20374;-75
2023/05/31 06:15:30;;;;;;;258.20;63.00;;;;;;;;;;6201162;23;20468;-75
2023/05/31 06:17:56;;;;;;;256.00;63.40;;;;;;;;;;6199717;23;20370;-75
2023/05/31 06:20:23;;;;;;;257.90;63.28;;;;;;;;;;6201722;23;20376;-75
2023/05/31 06:22:52;;;;;;;256.15;61.92;;;;;;;;;;6201087;23;20713;-75
2023/05/31 06:25:19;;;;;;;255.77;61.53;;;;;;;;;;6201013;23;20369;-75
2023/05/31 06:27:45;;;;;;;256.90;62.73;;;;;;;;;;6200776;23;20374;-75
2023/05/31 06:30:12;;;;;;;255.90;63.03;;;;;;;;;;6200629;23;20912;-75
2023/05/31 06:32:38;;;;;;;252.93;60.92;;;;;;;;;;6201013;23;20374;-75
2023/05/31 06:35:05;;;;;;;254.20;61.90;;;;;;;;;;6201834;23;20405;-75
2023/05/31 06:37:31;;;;;;;254.52;61.85;;;;;;;;;;6201009;23;20378;-75
2023/05/31 06:39:57;;;;;;;257.77;63.63;;;;;;;;;;6201451;23;20377;-75
2023/05/31 06:42:23;;;;;;;255.07;62.58;;;;;;;;;;6200867;23;20685;-75
2023/05/31 06:44:50;;;;;;;256.92;63.10;;;;;;;;;;6202168;23;20725;-75
2023/05/31 06:47:16;;;;;;;260.98;65.10;;;;;;;;;;6228398;23;20354;-75
2023/05/31 06:49:42;;;;;;;253.00;61.95;;;;;;;;;;6202626;23;20368;-75
2023/05/31 06:52:09;;;;;;;255.00;62.78;;;;;;;;;;6200790;23;20756;-75
2023/05/31 06:54:38;;;;;;;254.00;61.78;;;;;;;;;;6228641;23;20409;-75
2023/05/31 06:57:05;;;;;;;267.73;66.82;;;;;;;;;;6201728;23;20408;-75
2023/05/31 06:59:31;;;;;;;270.43;67.43;;;;;;;;;;6201726;23;20354;-75
2023/05/31 07:01:57;;;;;;;270.02;66.32;;;;;;;;;;6202834;23;20369;-75
2023/05/31 07:04:24;;;;;;;278.83;69.93;;;;;;;;;;6204186;23;21021;-76
2023/05/31 07:06:50;;;;;;;277.75;69.32;;;;;;;;;;6203725;23;20750;-75
2023/05/31 07:09:16;;;;;;;281.65;72.80;;;;;;;;;;6201098;23;20718;-75
2023/05/31 07:11:43;;;;;;;278.33;69.65;;;;;;;;;;6228615;23;20881;-75
2023/05/31 07:14:09;;;;;;;276.90;69.90;;;;;;;;;;6203264;23;20477;-75
2023/05/31 07:16:35;;;;;;;279.50;69.70;;;;;;;;;;6202633;23;20436;-75
2023/05/31 07:19:02;;;;;;;276.33;68.68;;;;;;;;;;6202963;23;20370;-75
2023/05/31 07:21:28;;;;;;;278.10;70.15;;;;;;;;;;6202738;23;20370;-75
2023/05/31 07:23:55;;;;;;;273.77;66.90;;;;;;;;;;6202996;23;20431;-76
2023/05/31 07:26:22;;;;;;;278.38;69.97;;;;;;;;;;6202877;23;20591;-78
2023/05/31 07:28:48;;;;;;;276.50;68.35;;;;;;;;;;6204054;23;20373;-77
2023/05/31 07:31:17;;;;;;;275.30;68.75;;;;;;;;;;6201740;23;20373;-78
2023/05/31 07:33:43;;;;;;;277.40;70.18;;;;;;;;;;6177849;23;20786;-77
2023/05/31 07:36:09;;;;;;;273.88;67.50;;;;;;;;;;6229058;23;20767;-78
2023/05/31 07:38:35;;;;;;;275.80;68.18;;;;;;;;;;6177154;23;20373;-78
2023/05/31 07:41:02;;;;;;;278.48;69.85;;;;;;;;;;6229492;23;20454;-77
2023/05/31 07:43:29;;;;;;;280.27;71.22;;;;;;;;;;6203007;23;20718;-77
2023/05/31 07:45:56;;;;;;;282.23;73.15;;;;;;;;;;6202178;23;20370;-77
2023/05/31 07:48:23;;;;;;;279.90;72.30;;;;;;;;;;6201394;23;20373;-77
2023/05/31 07:50:49;;;;;;;278.65;70.03;;;;;;;;;;6202432;23;20374;-77
2023/05/31 07:53:15;;;;;;;279.45;71.88;;;;;;;;;;6228520;23;20651;-77
2023/05/31 07:55:41;;;;;;;286.10;78.20;;;;;;;;;;6228827;23;20529;-77
2023/05/31 07:58:07;;;;;;;282.52;73.70;;;;;;;;;;6229549;23;20354;-79
2023/05/31 08:00:34;;;;;;;277.58;69.78;;;;;;;;;;6229240;23;20374;-80
2023/05/31 08:03:00;;;;;;;287.73;80.80;;;;;;;;;;6203257;23;20398;-76
2023/05/31 08:05:26;;;;;;;288.95;81.10;;;;;;;;;;6202938;23;20374;-79
2023/05/31 08:07:52;;;;;;;289.83;81.43;;;;;;;;;;6201370;23;20369;-79
2023/05/31 08:10:18;;;;;;;288.60;79.30;;;;;;;;;;6202098;23;20378;-78
2023/05/31 08:12:44;;;;;;;291.33;85.78;;;;;;;;;;6201979;23;20377;-76
2023/05/31 08:15:11;;;;;;;289.92;85.75;;;;;;;;;;6202581;23;20760;-77
2023/05/31 08:17:37;;;;;;;288.63;83.70;;;;;;;;;;6202362;23;20377;-76
2023/05/31 08:20:06;;;;;;;287.65;83.07;;;;;;;;;;6203220;23;20948;-76
2023/05/31 08:22:32;;;;;;;285.02;79.80;;;;;;;;;;6202160;23;20416;-75
2023/05/31 08:24:58;;;;;;;286.83;81.72;;;;;;;;;;6229378;23;20690;-76
2023/05/31 08:27:25;;;;;;;284.45;77.93;;;;;;;;;;6229086;23;20361;-77
2023/05/31 08:29:51;;;;;;;285.50;78.32;;;;;;;;;;6202601;23;20727;-76
2023/05/31 08:32:17;;;;;;;280.67;73.55;;;;;;;;;;6230187;23;20420;-76
2023/05/31 08:34:45;;;;;;;284.88;78.07;;;;;;;;;;6228840;23;20386;-76
2023/05/31 08:37:11;;;;;;;281.23;74.95;;;;;;;;;;6202207;23;20432;-76
2023/05/31 08:39:37;;;;;;;279.27;73.40;;;;;;;;;;6202005;23;20365;-76
2023/05/31 08:42:05;;;;;;;276.60;71.50;;;;;;;;;;6202262;23;20390;-76
2023/05/31 08:44:32;;;;;;;279.20;71.97;;;;;;;;;;6202542;23;20378;-76
2023/05/31 08:46:59;;;;;;;280.25;72.85;;;;;;;;;;6202970;23;20452;-76
2023/05/31 08:49:25;;;;;;;273.70;68.57;;;;;;;;;;6229733;23;20786;-76
2023/05/31 08:51:52;;;;;;;275.00;70.50;;;;;;;;;;6202215;23;20366;-76
2023/05/31 08:54:18;;;;;;;273.60;68.47;;;;;;;;;;6201727;23;20827;-76
2023/05/31 08:56:45;;;;;;;273.02;69.22;;;;;;;;;;6201737;23;21080;-76
2023/05/31 08:59:12;;;;;;;273.90;67.60;;;;;;;;;;6202107;23;20596;-76
2023/05/31 09:01:43;;;;;;;275.27;68.18;;;;;;;;;;6229665;23;20427;-76
2023/05/31 09:04:09;;;;;;;270.65;66.18;;;;;;;;;;6229545;23;20429;-76
2023/05/31 09:06:36;;;;;;;13.45;12.50;;;;;;;;;;6230432;23;20023;-76
2023/05/31 09:09:02;;;;;;;15.05;14.02;;;;;;;;;;6203679;23;20024;-76
2023/05/31 09:11:28;;;;;;;10.93;10.13;;;;;;;;;;6202976;23;20031;-76
2023/05/31 09:13:55;;;;;;;11.93;11.05;;;;;;;;;;6203866;23;20024;-76
2023/05/31 09:16:23;;;;;;;10.07;9.32;;;;;;;;;;6204105;23;20016;-76
2023/05/31 09:18:49;;;;;;;10.65;9.88;;;;;;;;;;6230630;23;20341;-76
2023/05/31 09:21:15;;;;;;;14.73;13.27;;;;;;;;;;6202572;23;20347;-76
2023/05/31 09:23:54;;;;;;;9.98;9.13;;;;;;;;;;6203288;23;20020;-76
2023/05/31 09:26:20;;;;;;;8.20;7.50;;;;;;;;;;6203792;23;20027;-75
2023/05/31 09:28:51;;;;;;;9.73;7.75;;;;;;;;;;6230746;23;20115;-77
2023/05/31 09:31:19;;;;;;;18.90;8.93;;;;;;;;;;6203042;23;20016;-78
2023/05/31 09:33:56;;;;;;;29.00;12.45;;;;;;;;;;6230064;23;20012;-78
2023/05/31 09:36:26;;;;;;;38.65;11.15;;;;;;;;;;6202185;23;20033;-77
2023/05/31 09:39:08;;;;;;;71.47;19.33;;;;;;;;;;6203230;23;20368;-78
2023/05/31 09:41:34;;;;;;;61.08;16.05;;;;;;;;;;6202536;23;20024;-78
2023/05/31 09:44:01;;;;;;;154.00;42.78;;;;;;;;;;6178945;23;20372;-77
2023/05/31 09:46:27;;;;;;;118.88;33.92;;;;;;;;;;6203362;23;20020;-77
2023/05/31 09:49:11;;;;;;;155.73;44.00;;;;;;;;;;6203378;23;20099;-77
2023/05/31 09:51:38;;;;;;;149.15;41.45;;;;;;;;;;6203503;23;20158;-77
2023/05/31 09:54:10;;;;;;;155.48;43.40;;;;;;;;;;6203334;23;20024;-77
2023/05/31 09:56:37;;;;;;;148.27;42.80;;;;;;;;;;6203237;23;20750;-77
2023/05/31 09:59:03;;;;;;;148.95;43.03;;;;;;;;;;6203735;23;20031;-75
2023/05/31 10:01:30;;;;;;;147.48;42.75;;;;;;;;;;6202334;23;20343;-77
2023/05/31 10:03:59;;;;;;;144.35;41.75;;;;;;;;;;6202935;23;20026;-78
2023/05/31 10:06:25;;;;;;;142.23;41.33;;;;;;;;;;6230039;23;20586;-77
2023/05/31 10:08:51;;;;;;;143.23;42.85;;;;;;;;;;6202368;23;20062;-78
2023/05/31 10:11:18;;;;;;;140.13;41.05;;;;;;;;;;6203303;23;20020;-77
2023/05/31 10:13:45;;;;;;;142.73;41.42;;;;;;;;;;6228740;23;20416;-77
2023/05/31 10:16:11;;;;;;;141.90;41.60;;;;;;;;;;6202892;23;20078;-77
2023/05/31 10:18:40;;;;;;;143.18;41.15;;;;;;;;;;6200413;23;20444;-76
2023/05/31 10:21:09;;;;;;;142.82;42.03;;;;;;;;;;6203273;23;20020;-77
2023/05/31 10:23:38;;;;;;;138.25;41.65;;;;;;;;;;6202584;23;20436;-77
2023/05/31 10:26:10;;;;;;;134.52;41.80;;;;;;;;;;6229971;23;20456;-76
2023/05/31 10:28:37;;;;;;;135.38;40.50;;;;;;;;;;6203088;23;20440;-77
2023/05/31 10:31:04;;;;;;;136.30;41.17;;;;;;;;;;6203490;23;20016;-77
2023/05/31 10:33:31;;;;;;;138.38;40.95;;;;;;;;;;6202245;23;20348;-77
2023/05/31 10:35:58;;;;;;;136.20;41.15;;;;;;;;;;6231981;23;20051;-78
2023/05/31 10:38:28;;;;;;;139.73;41.28;;;;;;;;;;6231860;23;20094;-77
2023/05/31 10:40:57;;;;;;;135.95;40.72;;;;;;;;;;6202886;23;20145;-75
2023/05/31 10:43:30;;;;;;;138.88;40.67;;;;;;;;;;6204272;23;20394;-77
2023/05/31 10:46:01;;;;;;;137.38;41.20;;;;;;;;;;6205571;23;20024;-76
2023/05/31 10:48:46;;;;;;;136.57;41.22;;;;;;;;;;6205170;23;20023;-77
2023/05/31 10:51:12;;;;;;;137.55;41.30;;;;;;;;;;6205099;23;20588;-76
2023/05/31 10:53:39;;;;;;;84.10;44.20;;;;;;;;;;6232559;23;20016;-76
2023/05/31 10:56:06;;;;;;;133.95;41.00;;;;;;;;;;6204950;23;20376;-77
2023/05/31 10:58:36;;;;;;;129.02;40.17;;;;;;;;;;6232853;23;20091;-77
2023/05/31 11:01:06;;;;;;;130.60;40.42;;;;;;;;;;6204748;23;20090;-75
2023/05/31 11:03:32;;;;;;;;;;;;;;;;;;6204903;23;20466;-77
2023/05/31 11:05:59;;;;;;;;;;;;;;;;;;6205787;23;19915;-77
2023/05/31 11:08:25;;;;;;;;;;;;;;;;;;6205786;23;20228;-77
2023/05/31 11:10:51;;;;;;;131.20;38.88;;;;;;;;;;6203281;23;20383;-76
2023/05/31 11:13:18;;;;;;;;;;;;;;;;;;6204203;23;20028;-76
2023/05/31 11:15:44;;;;;;;;;;;;;;;;;;6205515;23;19954;-76
2023/05/31 11:18:10;;;;;;;;;;;;;;;;;;6231433;23;19977;-76
2023/05/31 11:20:36;;;;;;;;;;;;;;;;;;6205754;23;19915;-76
2023/05/31 11:23:02;;;;;;;;;;;;;;;;;;6203316;23;20375;-76
2023/05/31 11:25:28;;;;;;;130.45;38.17;;;;;;;;;;6203709;23;20450;-76
2023/05/31 11:27:54;;;;;;;;;;;;;;;;;;6204991;23;20027;-76
2023/05/31 11:30:20;;;;;;;136.88;39.55;;;;;;;;;;6203019;23;20489;-76
2023/05/31 11:32:46;;;;;;;;;;;;;;;;;;6204446;23;20057;-76
2023/05/31 11:35:13;;;;;;;;;;;;;;;;;;6231988;23;20346;-76
2023/05/31 11:37:38;;;;;;;;;;;;;;;;;;6179332;23;20073;-76
2023/05/31 11:40:05;;;;;;;;;;;;;;;;;;6205539;23;20018;-77
2023/05/31 11:42:32;;;;;;;132.90;39.63;;;;;;;;;;6229365;23;20421;-76
2023/05/31 11:44:58;;;;;;;;;;;;;;;;;;6204976;23;20332;-76
2023/05/31 11:47:24;;;;;;;;;;;;;;;;;;6204417;23;19990;-76
2023/05/31 11:49:50;;;;;;;;;;;;;;;;;;6205305;23;20247;-76
2023/05/31 11:52:16;;;;;;;;;;;;;;;;;;6231509;23;19924;-76
2023/05/31 11:54:43;;;;;;;;;;;;;;;;;;6231560;23;19924;-76
2023/05/31 11:57:09;;;;;;;;;;;;;;;;;;6232187;23;20343;-77
2023/05/31 11:59:35;;;;;;;;;;;;;;;;;;6204829;23;19926;-77
2023/05/31 12:02:01;;;;;;;;;;;;;;;;;;6204649;23;20366;-77
2023/05/31 12:04:27;;;;;;;;;;;;;;;;;;6231189;23;19935;-76
2023/05/31 12:06:53;;;;;;;;;;;;;;;;;;6201577;23;19916;-79
2023/05/31 12:09:19;;;;;;;;;;;;;;;;;;6201935;23;19919;-79
2023/05/31 12:11:45;;;;;;;;;;;;;;;;;;6203225;23;20005;-79
2023/05/31 12:14:11;;;;;;;;;;;;;;;;;;6229527;23;19926;-79
2023/05/31 12:16:37;;;;;;;;;;;;;;;;;;6203599;23;19967;-79
2023/05/31 12:19:03;;;;;;;;;;;;;;;;;;6204050;23;19974;-79
2023/05/31 12:21:29;;;;;;;;;;;;;;;;;;6203238;23;19986;-79
2023/05/31 12:23:55;;;;;;;;;;;;;;;;;;6203916;23;20367;-79
2023/05/31 12:26:22;;;;;;;;;;;;;;;;;;6204298;23;20171;-79
2023/05/31 12:28:48;;;;;;;;;;;;;;;;;;6203321;23;20463;-79
2023/05/31 12:31:14;;;;;;;;;;;;;;;;;;6202802;23;20173;-80
2023/05/31 12:33:40;;;;;;;;;;;;;;;;;;6203702;23;20683;-80
2023/05/31 12:36:06;;;;;;;;;;;;;;;;;;6203208;23;20338;-80
2023/05/31 12:38:33;;;;;;;;;;;;;;;;;;6203675;23;20331;-80
2023/05/31 12:40:59;;;;;;;;;;;;;;;;;;6202613;23;19915;-80
2023/05/31 12:43:25;;;;;;;;;;;;;;;;;;6230541;23;20335;-79
2023/05/31 12:45:51;;;;;;;;;;;;;;;;;;6203837;23;19915;-81
2023/05/31 12:48:17;;;;;;;;;;;;;;;;;;6203159;23;19916;-80
2023/05/31 12:50:44;;;;;;;;;;;;;;;;;;6179113;23;20450;-80
2023/05/31 12:53:10;;;;;;;;;;;;;;;;;;6203746;23;19919;-80
2023/05/31 12:55:36;;;;;;;;;;;;;;;;;;6230667;23;20286;-80
2023/05/31 12:58:02;;;;;;;;;;;;;;;;;;6203441;23;20310;-80
2023/05/31 13:00:27;;;;;;;;;;;;;;;;;;6203120;23;19915;-80
2023/05/31 13:02:53;;;;;;;;;;;;;;;;;;6202986;23;19915;-81
2023/05/31 13:05:19;;;;;;;;;;;;;;;;;;6203742;23;20014;-80
2023/05/31 13:07:47;;;;;;;;;;;;;;;;;;6204556;23;19919;-80
2023/05/31 13:10:14;;;;;;;;;;;;;;;;;;6231541;23;20366;-81
2023/05/31 13:12:40;;;;;;;;;;;;;;;;;;6202960;23;20303;-81
2023/05/31 13:15:06;;;;;;;;;;;;;;;;;;6203500;23;19922;-81
2023/05/31 13:17:33;;;;;;;;;;;;;;;;;;6202874;23;20657;-81
2023/05/31 13:19:59;;;;;;;;;;;;;;;;;;6178815;23;20292;-80
2023/05/31 13:22:25;;;;;;;;;;;;;;;;;;6230357;23;19916;-80
2023/05/31 13:24:51;;;;;;;;;;;;;;;;;;6230933;23;20073;-79
2023/05/31 13:27:17;;;;;;;;;;;;;;;;;;6230260;23;19985;-79
2023/05/31 13:29:43;;;;;;;;;;;;;;;;;;6229454;23;19915;-79
2023/05/31 13:32:09;;;;;;;;;;;;;;;;;;6203068;23;19993;-80
2023/05/31 13:34:35;;;;;;;;;;;;;;;;;;6203025;23;19993;-80
2023/05/31 13:37:02;;;;;;;;;;;;;;;;;;6202798;23;20263;-79
2023/05/31 13:39:28;;;;;;;;;;;;;;;;;;6230060;23;20405;-79
2023/05/31 13:41:54;;;;;;;;;;;;;;;;;;6203274;23;19915;-79
2023/05/31 13:44:20;;;;;;;;;;;;;;;;;;6203227;23;19915;-77
2023/05/31 13:46:46;;;;;;;;;;;;;;;;;;6229848;23;20372;-77
2023/05/31 13:49:15;;;;;;;;;;;;;;;;;;6230438;23;19926;-77
2023/05/31 13:51:41;;;;;;;;;;;;;;;;;;6203889;23;19915;-78
2023/05/31 13:54:07;;;;;;;;;;;;;;;;;;6203246;23;20292;-77
2023/05/31 13:56:33;;;;;;;;;;;;;;;;;;6229646;23;20459;-78
2023/05/31 13:58:59;;;;;;;;;;;;;;;;;;6202885;23;19915;-77
2023/05/31 14:01:25;;;;;;;;;;;;;;;;;;6203619;23;19986;-77
2023/05/31 14:03:51;;;;;;;;;;;;;;;;;;6203392;23;19915;-77
2023/05/31 14:06:17;;;;;;;;;;;;;;;;;;6229192;23;19943;-77
2023/05/31 14:08:45;;;;;;;;;;;;;;;;;;6202987;23;19990;-76
2023/05/31 14:11:12;;;;;;;;;;;;;;;;;;6230582;23;20331;-76
2023/05/31 14:13:39;;;;;;;;;;;;;;;;;;6229220;23;19988;-77
2023/05/31 14:16:05;;;;;;;;;;;;;;;;;;6228290;23;20440;-78
2023/05/31 14:18:31;;;;;;;;;;;;;;;;;;6202456;23;19942;-78
2023/05/31 14:20:57;;;;;;;;;;;;;;;;;;6229966;23;19931;-78
2023/05/31 14:23:23;;;;;;;;;;;;;;;;;;6177790;23;19923;-77
2023/05/31 14:25:48;;;;;;;;;;;;;;;;;;6203413;23;19915;-78
2023/05/31 14:28:14;;;;;;;;;;;;;;;;;;6203348;23;20714;-78
2023/05/31 14:30:40;;;;;;;;;;;;;;;;;;6202465;23;20343;-78
2023/05/31 14:33:06;;;;;;;;;;;;;;;;;;6203250;23;19923;-78
2023/05/31 14:35:32;;;;;;;;;;;;;;;;;;6229611;23;20369;-78
2023/05/31 14:37:59;;;;;;;;;;;;;;;;;;6201889;23;19926;-78
2023/05/31 14:40:28;;;;;;;;;;;;;;;;;;6177986;23;19915;-78
2023/05/31 14:42:54;;;;;;;;;;;;;;;;;;6230253;23;20315;-78
2023/05/31 14:45:20;;;;;;;;;;;;;;;;;;6230692;23;19946;-78
2023/05/31 14:47:46;;;;;;;;;;;;;;;;;;6230244;23;20251;-78
2023/05/31 14:50:12;;;;;;;;;;;;;;;;;;6230924;23;19994;-78
2023/05/31 14:52:38;;;;;;;;;;;;;;;;;;6230467;23;19935;-77